createdAt,value
2019-05-23T00:05:25.188Z,99.90
2019-05-23T00:07:57.523Z,99.90
2019-05-23T00:10:36.897Z,99.90
2019-05-23T00:13:07.091Z,99.90
2019-05-23T00:15:39.685Z,99.90
2019-05-23T00:18:09.818Z,99.90
2019-05-23T00:20:38.348Z,99.90
2019-05-23T00:23:13.140Z,99.90
2019-05-23T00:25:44.513Z,99.90
2019-05-23T00:28:15.807Z,99.90
2019-05-23T00:30:53.563Z,99.90
2019-05-23T00:33:23.873Z,99.90
2019-05-23T00:35:55.908Z,99.90
2019-05-23T00:38:24.860Z,99.90
2019-05-23T00:40:55.084Z,99.90
2019-05-23T00:43:27.879Z,99.90
2019-05-23T00:45:57.082Z,99.90
2019-05-23T00:48:28.577Z,99.90
2019-05-23T00:50:58.547Z,99.90
2019-05-23T00:53:29.920Z,99.90
2019-05-23T00:56:02.456Z,99.90
2019-05-23T00:58:31.354Z,99.90
2019-05-23T01:01:02.977Z,99.90
2019-05-23T01:03:41.694Z,99.90
2019-05-23T01:06:12.105Z,99.90
2019-05-23T01:08:41.318Z,99.90
2019-05-23T01:11:17.439Z,99.90
2019-05-23T01:13:46.067Z,99.90
2019-05-23T01:16:15.369Z,99.90
2019-05-23T01:18:48.336Z,99.90
2019-05-23T01:21:18.480Z,99.90
2019-05-23T01:23:49.660Z,99.90
2019-05-23T01:26:20.016Z,99.90
2019-05-23T01:29:00.613Z,99.90
2019-05-23T01:31:30.854Z,99.90
2019-05-23T01:34:00.828Z,99.90
2019-05-23T01:36:34.210Z,99.90
2019-05-23T01:39:04.952Z,99.90
2019-05-23T01:41:36.591Z,99.90
2019-05-23T01:44:09.906Z,99.90
2019-05-23T01:46:41.248Z,99.90
2019-05-23T01:49:11.884Z,99.90
2019-05-23T01:51:44.591Z,99.90
2019-05-23T01:54:13.598Z,99.90
2019-05-23T01:56:43.802Z,99.90
2019-05-23T01:59:14.754Z,99.90
2019-05-23T02:01:44.399Z,99.90
2019-05-23T02:04:14.289Z,99.90
2019-05-23T02:06:45.796Z,99.90
2019-05-23T02:09:18.177Z,99.90
2019-05-23T02:11:53.049Z,99.90
2019-05-23T02:14:25.027Z,99.90
2019-05-23T02:16:55.805Z,99.90
2019-05-23T02:19:24.493Z,99.90
2019-05-23T02:21:52.964Z,99.90
2019-05-23T02:24:25.783Z,99.90
2019-05-23T02:26:54.562Z,99.90
2019-05-23T02:29:26.451Z,99.90
2019-05-23T02:31:55.164Z,99.90
2019-05-23T02:34:24.556Z,99.90
2019-05-23T02:36:56.373Z,99.90
2019-05-23T02:39:44.500Z,99.90
2019-05-23T02:42:24.266Z,99.90
2019-05-23T02:44:57.553Z,99.90
2019-05-23T02:47:30.901Z,99.90
2019-05-23T02:50:02.230Z,99.90
2019-05-23T02:52:55.891Z,99.90
2019-05-23T02:55:34.536Z,99.90
2019-05-23T02:58:11.774Z,99.90
2019-05-23T03:00:54.112Z,99.90
2019-05-23T03:03:27.431Z,99.90
2019-05-23T03:06:02.383Z,99.90
2019-05-23T03:08:32.737Z,99.90
2019-05-23T03:11:19.616Z,99.90
2019-05-23T03:13:50.171Z,99.90
2019-05-23T03:16:23.088Z,99.90
2019-05-23T03:18:56.446Z,99.90
2019-05-23T03:21:27.213Z,99.90
2019-05-23T03:24:01.621Z,99.90
2019-05-23T03:26:42.152Z,99.90
2019-05-23T03:29:13.785Z,99.90
2019-05-23T03:31:47.818Z,99.90
2019-05-23T03:34:19.619Z,99.90
2019-05-23T03:36:51.413Z,99.90
2019-05-23T03:39:23.179Z,99.90
2019-05-23T03:41:52.558Z,99.90
2019-05-23T03:44:22.019Z,99.90
2019-05-23T03:46:52.506Z,99.90
2019-05-23T03:49:22.690Z,99.90
2019-05-23T03:52:10.535Z,99.90
2019-05-23T03:54:39.962Z,99.90
2019-05-23T03:57:09.199Z,99.90
2019-05-23T03:59:42.292Z,99.90
2019-05-23T04:02:14.544Z,99.90
2019-05-23T04:04:43.493Z,99.90
2019-05-23T04:07:13.658Z,99.90
2019-05-23T04:09:43.406Z,99.90
2019-05-23T04:12:15.316Z,99.90
2019-05-23T04:14:48.041Z,99.90
2019-05-23T04:17:18.305Z,99.90
2019-05-23T04:19:48.490Z,99.90
2019-05-23T04:22:18.533Z,99.90
2019-05-23T04:24:48.455Z,99.90
2019-05-23T04:27:16.917Z,99.90
2019-05-23T04:29:49.270Z,99.90
2019-05-23T04:32:21.216Z,99.90
2019-05-23T04:34:52.416Z,99.90
2019-05-23T04:37:21.748Z,99.90
2019-05-23T04:39:53.775Z,99.90
2019-05-23T04:42:22.364Z,99.90
2019-05-23T04:45:05.164Z,99.90
2019-05-23T04:47:53.026Z,99.90
2019-05-23T04:50:21.671Z,99.90
2019-05-23T04:52:51.842Z,99.90
2019-05-23T04:55:41.189Z,99.90
2019-05-23T04:58:23.890Z,99.90
2019-05-23T05:00:52.349Z,99.90
2019-05-23T05:03:24.346Z,99.90
2019-05-23T05:05:54.654Z,99.90
2019-05-23T05:08:23.227Z,99.90
2019-05-23T05:11:12.771Z,99.90
2019-05-23T05:13:42.236Z,99.90
2019-05-23T05:16:15.092Z,99.90
2019-05-23T05:18:46.524Z,99.90
2019-05-23T05:21:16.358Z,99.90
2019-05-23T05:23:44.898Z,99.90
2019-05-23T05:26:16.440Z,99.90
2019-05-23T05:28:48.507Z,99.90
2019-05-23T05:31:17.522Z,99.90
2019-05-23T05:33:46.083Z,99.90
2019-05-23T05:36:16.005Z,99.90
2019-05-23T05:38:47.406Z,99.90
2019-05-23T05:41:17.369Z,99.90
2019-05-23T05:43:46.429Z,99.90
2019-05-23T05:46:17.330Z,99.90
2019-05-23T05:48:46.144Z,99.90
2019-05-23T05:51:16.190Z,99.90
2019-05-23T05:53:44.683Z,99.90
2019-05-23T05:56:15.619Z,99.90
2019-05-23T05:58:44.374Z,99.90
2019-05-23T06:01:31.191Z,99.90
2019-05-23T06:03:46.226Z,99.90
2019-05-23T06:06:36.529Z,99.90
2019-05-23T06:09:16.728Z,99.90
2019-05-23T06:11:45.811Z,99.90
2019-05-23T06:14:16.084Z,99.90
2019-05-23T06:16:48.779Z,99.90
2019-05-23T06:19:21.939Z,99.90
2019-05-23T06:21:53.873Z,99.90
2019-05-23T06:24:44.695Z,98.70
2019-05-23T06:27:16.247Z,97.90
2019-05-23T06:29:46.473Z,96.40
2019-05-23T06:32:22.348Z,95.10
2019-05-23T06:34:52.485Z,95.30
2019-05-23T06:37:26.610Z,94.70
2019-05-23T06:39:56.034Z,91.80
2019-05-23T06:42:26.019Z,90.80
2019-05-23T06:47:27.920Z,99.90
2019-05-23T06:49:57.987Z,81.50
2019-05-23T06:52:27.206Z,78.20
2019-05-23T06:54:59.963Z,78.30
2019-05-23T06:57:32.356Z,78.20
2019-05-23T07:00:01.311Z,78.10
2019-05-23T07:02:38.323Z,78.00
2019-05-23T07:05:09.929Z,75.60
2019-05-23T07:07:43.670Z,72.30
2019-05-23T07:10:14.908Z,68.90
2019-05-23T07:12:46.183Z,66.90
2019-05-23T07:15:15.865Z,64.80
2019-05-23T07:17:46.356Z,61.40
2019-05-23T07:20:16.587Z,60.10
2019-05-23T07:22:45.283Z,59.80
2019-05-23T07:25:17.539Z,58.20
2019-05-23T07:27:46.379Z,57.80
2019-05-23T07:30:24.147Z,57.30
2019-05-23T07:32:53.384Z,58.40
2019-05-23T07:35:22.369Z,55.30
2019-05-23T07:37:51.177Z,53.20
2019-05-23T07:40:20.089Z,51.00
2019-05-23T07:42:52.140Z,52.50
2019-05-23T07:45:24.074Z,55.90
2019-05-23T07:47:54.158Z,56.50
2019-05-23T07:50:25.443Z,52.40
2019-05-23T07:52:58.115Z,51.40
2019-05-23T07:55:28.323Z,51.40
2019-05-23T07:57:58.875Z,51.60
2019-05-23T08:00:32.328Z,51.60
2019-05-23T08:03:04.683Z,51.90
2019-05-23T08:05:36.671Z,52.20
2019-05-23T08:08:06.141Z,52.40
2019-05-23T08:10:39.209Z,52.50
2019-05-23T08:13:12.578Z,48.80
2019-05-23T08:15:41.359Z,47.20
2019-05-23T08:18:11.620Z,45.70
2019-05-23T08:20:44.488Z,44.70
2019-05-23T08:23:13.707Z,45.40
2019-05-23T08:25:42.261Z,45.50
2019-05-23T08:28:12.879Z,46.40
2019-05-23T08:30:41.491Z,42.90
2019-05-23T08:33:11.996Z,43.10
2019-05-23T08:35:40.524Z,43.10
2019-05-23T08:38:10.810Z,44.10
2019-05-23T08:40:42.991Z,43.10
2019-05-23T08:43:15.899Z,42.30
2019-05-23T08:45:45.390Z,42.50
2019-05-23T08:48:16.633Z,41.90
2019-05-23T08:50:46.215Z,42.60
2019-05-23T08:53:15.158Z,41.70
2019-05-23T08:55:46.338Z,39.60
2019-05-23T08:58:17.176Z,41.00
2019-05-23T09:00:46.376Z,40.60
2019-05-23T09:03:17.169Z,41.00
2019-05-23T09:05:47.734Z,42.00
2019-05-23T09:08:18.194Z,42.00
2019-05-23T09:10:47.801Z,42.20
2019-05-23T09:13:17.324Z,43.10
2019-05-23T09:15:45.806Z,42.40
2019-05-23T09:18:16.799Z,43.80
2019-05-23T09:20:45.772Z,41.90
2019-05-23T09:23:16.383Z,41.80
2019-05-23T09:25:46.401Z,42.90
2019-05-23T09:28:15.349Z,43.30
2019-05-23T09:30:46.774Z,43.40
2019-05-23T09:33:15.262Z,42.00
2019-05-23T09:35:43.772Z,41.60
2019-05-23T09:38:12.453Z,41.20
2019-05-23T09:40:41.492Z,42.10
2019-05-23T09:43:11.711Z,43.00
2019-05-23T09:45:42.844Z,42.40
2019-05-23T09:48:11.403Z,41.90
2019-05-23T09:50:43.127Z,43.00
2019-05-23T09:53:13.375Z,42.50
2019-05-23T09:55:43.514Z,41.80
2019-05-23T09:58:17.093Z,42.50
2019-05-23T10:00:49.062Z,43.20
2019-05-23T10:03:18.871Z,44.10
2019-05-23T10:05:49.059Z,45.20
2019-05-23T10:08:19.269Z,42.40
2019-05-23T10:10:51.948Z,42.40
2019-05-23T10:13:37.845Z,42.70
2019-05-23T10:15:54.312Z,42.30
2019-05-23T10:18:27.885Z,42.90
2019-05-23T10:20:58.093Z,42.80
2019-05-23T10:23:26.694Z,43.00
2019-05-23T10:25:59.534Z,43.00
2019-05-23T10:28:28.139Z,43.30
2019-05-23T10:30:57.625Z,44.30
2019-05-23T10:33:26.125Z,43.10
2019-05-23T10:36:00.231Z,45.30
2019-05-23T10:38:29.384Z,42.60
2019-05-23T10:40:59.646Z,42.00
2019-05-23T10:43:31.434Z,42.30
2019-05-23T10:46:03.054Z,39.50
2019-05-23T10:48:33.138Z,39.60
2019-05-23T10:51:10.583Z,36.60
2019-05-23T10:53:44.007Z,36.20
2019-05-23T10:56:20.026Z,36.50
2019-05-23T10:58:48.209Z,37.30
2019-05-23T11:01:17.680Z,37.60
2019-05-23T11:03:51.470Z,38.60
2019-05-23T11:06:21.112Z,39.90
2019-05-23T11:08:49.875Z,40.50
2019-05-23T11:11:18.715Z,40.10
2019-05-23T11:13:49.136Z,39.20
2019-05-23T11:16:20.907Z,37.70
2019-05-23T11:18:51.089Z,37.60
2019-05-23T11:21:23.984Z,37.90
2019-05-23T11:24:01.743Z,38.90
2019-05-23T11:26:35.670Z,38.40
2019-05-23T11:29:08.905Z,38.10
2019-05-23T11:31:37.864Z,38.10
2019-05-23T11:34:09.207Z,39.30
2019-05-23T11:36:38.373Z,39.20
2019-05-23T11:39:11.411Z,40.40
2019-05-23T11:41:41.036Z,38.60
2019-05-23T11:44:09.642Z,36.60
2019-05-23T11:46:49.673Z,38.20
2019-05-23T11:49:19.315Z,37.00
2019-05-23T11:51:47.790Z,36.10
2019-05-23T11:54:17.444Z,36.80
2019-05-23T11:56:46.249Z,36.80
2019-05-23T11:59:14.799Z,34.80
2019-05-23T12:01:51.070Z,35.10
2019-05-23T12:04:21.273Z,35.10
2019-05-23T12:06:55.663Z,35.10
2019-05-23T12:09:22.924Z,34.50
2019-05-23T12:11:58.724Z,33.40
2019-05-23T12:14:29.280Z,34.40
2019-05-23T12:16:59.597Z,32.70
2019-05-23T12:19:30.236Z,32.80
2019-05-23T12:22:00.230Z,34.60
2019-05-23T12:24:35.649Z,32.20
2019-05-23T12:27:06.712Z,32.60
2019-05-23T12:29:36.076Z,32.10
2019-05-23T12:32:06.516Z,29.30
2019-05-23T12:34:35.073Z,31.80
2019-05-23T12:37:18.166Z,28.30
2019-05-23T12:39:33.979Z,29.80
2019-05-23T12:42:02.558Z,28.70
2019-05-23T12:44:31.043Z,28.50
2019-05-23T12:47:01.313Z,28.50
2019-05-23T12:49:34.858Z,28.40
2019-05-23T12:52:03.739Z,28.40
2019-05-23T12:54:33.319Z,28.30
2019-05-23T12:57:04.402Z,29.70
2019-05-23T12:59:32.878Z,29.00
2019-05-23T13:02:04.321Z,30.90
2019-05-23T13:04:33.456Z,31.00
2019-05-23T13:07:02.290Z,31.30
2019-05-23T13:09:33.925Z,28.20
2019-05-23T13:12:02.656Z,28.50
2019-05-23T13:14:31.743Z,28.30
2019-05-23T13:17:01.501Z,28.40
2019-05-23T13:19:34.548Z,28.30
2019-05-23T13:22:05.250Z,28.20
2019-05-23T13:24:51.401Z,28.10
2019-05-23T13:27:07.024Z,27.80
2019-05-23T13:29:35.483Z,27.70
2019-05-23T13:32:05.231Z,29.30
2019-05-23T13:34:35.467Z,28.10
2019-05-23T13:37:05.895Z,28.30
2019-05-23T13:39:34.767Z,28.40
2019-05-23T13:42:04.391Z,28.40
2019-05-23T13:44:38.410Z,28.30
2019-05-23T13:47:07.120Z,28.40
2019-05-23T13:49:37.203Z,28.40
2019-05-23T13:52:06.983Z,28.50
2019-05-23T13:54:38.698Z,28.70
2019-05-23T13:57:09.952Z,27.00
2019-05-23T13:59:38.721Z,27.10
2019-05-23T14:02:09.337Z,28.10
2019-05-23T14:04:39.434Z,28.50
2019-05-23T14:07:10.474Z,28.50
2019-05-23T14:09:44.428Z,28.50
2019-05-23T14:12:21.801Z,28.40
2019-05-23T14:14:44.026Z,28.50
2019-05-23T14:17:31.117Z,28.50
2019-05-23T14:20:06.656Z,28.40
2019-05-23T14:22:36.974Z,28.50
2019-05-23T14:25:21.813Z,28.60
2019-05-23T14:28:03.236Z,28.60
2019-05-23T14:30:36.159Z,28.00
2019-05-23T14:33:13.495Z,26.90
2019-05-23T14:35:45.309Z,28.30
2019-05-23T14:38:29.495Z,26.60
2019-05-23T14:40:46.299Z,26.80
2019-05-23T14:43:18.227Z,26.10
2019-05-23T14:45:54.366Z,26.00
2019-05-23T14:48:33.642Z,27.40
2019-05-23T14:51:20.333Z,25.80
2019-05-23T14:53:53.456Z,26.50
2019-05-23T14:56:25.196Z,27.30
2019-05-23T14:58:59.871Z,28.10
2019-05-23T15:01:33.315Z,28.10
2019-05-23T15:04:03.298Z,28.20
2019-05-23T15:06:33.270Z,28.10
2019-05-23T15:09:07.941Z,28.10
2019-05-23T15:11:38.792Z,27.90
2019-05-23T15:14:09.399Z,27.80
2019-05-23T15:16:40.464Z,27.70
2019-05-23T15:19:10.915Z,27.50
2019-05-23T15:21:39.499Z,27.40
2019-05-23T15:24:12.611Z,27.30
2019-05-23T15:26:41.788Z,27.20
2019-05-23T15:29:11.648Z,27.10
2019-05-23T15:32:01.056Z,27.00
2019-05-23T15:34:16.391Z,27.00
2019-05-23T15:36:46.455Z,27.00
2019-05-23T15:39:38.088Z,27.00
2019-05-23T15:42:13.808Z,27.00
2019-05-23T15:44:45.596Z,27.00
2019-05-23T15:47:14.636Z,27.00
2019-05-23T15:49:48.788Z,27.00
2019-05-23T15:52:26.243Z,26.90
2019-05-23T15:55:06.080Z,26.90
2019-05-23T15:57:43.410Z,26.80
2019-05-23T16:00:21.026Z,26.80
2019-05-23T16:02:54.223Z,26.80
2019-05-23T16:05:25.538Z,26.80
2019-05-23T16:07:59.569Z,26.70
2019-05-23T16:10:31.834Z,26.60
2019-05-23T16:13:03.996Z,27.30
2019-05-23T16:15:33.457Z,26.70
2019-05-23T16:18:05.279Z,26.60
2019-05-23T16:20:36.781Z,26.60
2019-05-23T16:23:06.733Z,26.50
2019-05-23T16:25:35.420Z,26.40
2019-05-23T16:28:05.148Z,26.40
2019-05-23T16:30:34.556Z,26.40
2019-05-23T16:33:03.079Z,26.70
2019-05-23T16:35:32.256Z,26.20
2019-05-23T16:38:02.000Z,28.20
2019-05-23T16:40:30.820Z,28.40
2019-05-23T16:43:02.295Z,27.10
2019-05-23T16:45:32.948Z,26.30
2019-05-23T16:48:04.004Z,26.10
2019-05-23T16:50:35.821Z,26.00
2019-05-23T16:53:11.573Z,27.70
2019-05-23T16:55:53.710Z,31.70
2019-05-23T16:58:41.639Z,33.30
2019-05-23T17:01:24.197Z,35.10
2019-05-23T17:03:52.233Z,35.20
2019-05-23T17:06:22.690Z,36.00
2019-05-23T17:08:55.836Z,36.60
2019-05-23T17:11:29.891Z,37.20
2019-05-23T17:14:05.944Z,36.30
2019-05-23T17:16:42.082Z,36.80
2019-05-23T17:19:18.421Z,36.20
2019-05-23T17:21:53.130Z,36.00
2019-05-23T17:24:34.272Z,36.20
2019-05-23T17:27:07.777Z,36.00
2019-05-23T17:29:52.005Z,36.30
2019-05-23T17:32:22.409Z,36.50
2019-05-23T17:34:51.033Z,36.50
2019-05-23T17:37:21.356Z,36.60
2019-05-23T17:39:53.389Z,36.60
2019-05-23T17:42:25.222Z,36.60
2019-05-23T17:44:53.733Z,37.10
2019-05-23T17:47:25.457Z,37.70
2019-05-23T17:49:57.809Z,38.10
2019-05-23T17:52:28.218Z,38.00
2019-05-23T17:54:58.337Z,38.40
2019-05-23T17:57:30.225Z,39.10
2019-05-23T17:59:59.087Z,38.80
2019-05-23T18:02:30.932Z,38.80
2019-05-23T18:05:05.689Z,39.30
2019-05-23T18:07:41.383Z,38.80
2019-05-23T18:10:44.025Z,39.10
2019-05-23T18:13:03.549Z,39.40
2019-05-23T18:15:33.897Z,40.00
2019-05-23T18:18:05.840Z,40.30
2019-05-23T18:20:35.588Z,40.70
2019-05-23T18:23:07.615Z,41.20
2019-05-23T18:25:40.943Z,41.40
2019-05-23T18:28:11.161Z,42.20
2019-05-23T18:30:59.502Z,42.40
2019-05-23T18:33:32.618Z,42.40
2019-05-23T18:36:03.273Z,42.70
2019-05-23T18:38:32.609Z,42.80
2019-05-23T18:41:08.766Z,43.10
2019-05-23T18:43:35.358Z,43.70
2019-05-23T18:46:05.817Z,43.80
2019-05-23T18:48:35.456Z,44.20
2019-05-23T18:51:04.659Z,44.20
2019-05-23T18:53:37.363Z,44.80
2019-05-23T18:56:07.653Z,45.60
2019-05-23T18:58:36.312Z,45.40
2019-05-23T19:01:10.466Z,46.10
2019-05-23T19:03:39.093Z,46.40
2019-05-23T19:06:10.715Z,47.00
2019-05-23T19:08:43.645Z,47.90
2019-05-23T19:11:20.934Z,47.90
2019-05-23T19:13:43.767Z,49.50
2019-05-23T19:16:13.910Z,50.40
2019-05-23T19:18:47.526Z,50.30
2019-05-23T19:21:18.291Z,50.20
2019-05-23T19:23:47.193Z,50.10
2019-05-23T19:26:18.542Z,50.10
2019-05-23T19:28:52.351Z,49.90
2019-05-23T19:31:21.098Z,51.30
2019-05-23T19:33:51.193Z,49.70
2019-05-23T19:39:05.523Z,50.80
2019-05-23T19:41:37.865Z,52.60
2019-05-23T19:44:05.845Z,52.70
2019-05-23T19:46:38.354Z,53.40
2019-05-23T19:49:12.640Z,53.60
2019-05-23T19:51:44.359Z,54.90
2019-05-23T19:54:13.211Z,55.20
2019-05-23T19:56:41.821Z,55.80
2019-05-23T19:59:12.289Z,55.20
2019-05-23T20:01:51.516Z,56.30
2019-05-23T20:04:25.720Z,55.70
2019-05-23T20:06:56.567Z,56.60
2019-05-23T20:09:25.411Z,57.00
2019-05-23T20:11:57.391Z,57.90
2019-05-23T20:14:25.869Z,57.90
2019-05-23T20:16:57.330Z,58.30
2019-05-23T20:19:27.422Z,59.30
2019-05-23T20:21:56.233Z,59.20
2019-05-23T20:24:26.146Z,60.10
2019-05-23T20:26:56.002Z,60.60
2019-05-23T20:29:26.109Z,61.40
2019-05-23T20:31:54.994Z,61.70
2019-05-23T20:34:26.081Z,61.60
2019-05-23T20:36:56.345Z,62.10
2019-05-23T20:39:27.484Z,62.40
2019-05-23T20:42:10.869Z,62.90
2019-05-23T20:44:29.526Z,63.50
2019-05-23T20:47:02.417Z,63.70
2019-05-23T20:49:34.011Z,64.90
2019-05-23T20:52:03.087Z,65.20
2019-05-23T20:54:33.768Z,65.10
2019-05-23T20:57:02.753Z,65.00
2019-05-23T20:59:32.368Z,65.70
2019-05-23T21:02:01.369Z,66.30
2019-05-23T21:04:35.494Z,66.70
2019-05-23T21:07:04.018Z,67.20
2019-05-23T21:09:35.171Z,68.20
2019-05-23T21:12:09.008Z,68.80
2019-05-23T21:14:41.095Z,69.20
2019-05-23T21:17:09.673Z,70.30
2019-05-23T21:19:38.216Z,70.80
2019-05-23T21:22:06.718Z,71.40
2019-05-23T21:24:35.726Z,72.90
2019-05-23T21:27:04.275Z,74.10
2019-05-23T21:29:36.652Z,75.00
2019-05-23T21:32:05.171Z,74.90
2019-05-23T21:34:36.844Z,74.90
2019-05-23T21:37:05.410Z,74.80
2019-05-23T21:39:42.629Z,75.80
2019-05-23T21:42:11.205Z,77.30
2019-05-23T21:44:39.863Z,78.70
2019-05-23T21:47:08.618Z,79.10
2019-05-23T21:49:39.129Z,79.20
2019-05-23T21:52:08.061Z,79.10
2019-05-23T21:54:36.657Z,79.10
2019-05-23T21:57:06.229Z,80.00
2019-05-23T21:59:34.793Z,82.50
2019-05-23T22:02:24.814Z,84.40
2019-05-23T22:04:56.028Z,84.50
2019-05-23T22:07:24.854Z,85.50
2019-05-23T22:09:53.497Z,84.40
2019-05-23T22:12:22.629Z,83.10
2019-05-23T22:14:51.104Z,83.40
2019-05-23T22:17:21.678Z,82.90
2019-05-23T22:19:50.437Z,82.60
2019-05-23T22:22:19.119Z,82.30
2019-05-23T22:24:48.756Z,81.70
2019-05-23T22:27:19.373Z,81.30
2019-05-23T22:29:48.893Z,82.60
2019-05-23T22:32:19.021Z,81.70
2019-05-23T22:34:52.969Z,82.50
2019-05-23T22:37:24.396Z,83.50
2019-05-23T22:39:54.140Z,83.60
2019-05-23T22:42:24.267Z,83.70
2019-05-23T22:44:52.737Z,84.60
2019-05-23T22:47:21.425Z,84.60
2019-05-23T22:49:49.937Z,84.90
2019-05-23T22:52:20.359Z,83.80
2019-05-23T22:54:49.329Z,83.00
2019-05-23T22:57:20.040Z,84.30
2019-05-23T22:59:48.533Z,85.80
2019-05-23T23:02:21.800Z,85.50
2019-05-23T23:04:50.360Z,85.40
2019-05-23T23:07:18.999Z,85.30
2019-05-23T23:09:51.064Z,84.70
2019-05-23T23:12:19.668Z,84.50
2019-05-23T23:14:48.142Z,84.80
2019-05-23T23:17:17.941Z,86.20
2019-05-23T23:19:47.991Z,89.80
2019-05-23T23:22:16.702Z,91.90
2019-05-23T23:24:45.240Z,93.10
2019-05-23T23:27:15.613Z,92.40
2019-05-23T23:32:33.433Z,94.10
2019-05-23T23:35:02.087Z,94.10
2019-05-23T23:37:34.199Z,94.10
2019-05-23T23:40:04.994Z,95.00
2019-05-23T23:42:36.834Z,95.40
2019-05-23T23:45:24.849Z,96.20
2019-05-23T23:48:11.160Z,96.50
2019-05-23T23:50:57.594Z,96.50
2019-05-23T23:53:43.961Z,96.40
2019-05-23T23:56:31.143Z,97.10
2019-05-23T23:59:01.822Z,98.00
